Time;durP1;ratioP1;P1;durP2;ratioP2;P2;SDS_P1;SDS_P2;PMS_P1;PMS_P2;Temp;Humidity;BMP_temperature;BMP_pressure;BME280_temperature;BME280_humidity;BME280_pressure;Samples;Min_cycle;Max_cycle;Signal;HPM_P1;HPM_P2
2021/09/19 00:00:45;;;;;;;5.25;4.75;;;15.80;99.90;;;;;;2620452;54;20142;-74
2021/09/19 00:03:14;;;;;;;5.30;4.65;;;15.80;99.90;;;;;;2620064;54;20203;-73
2021/09/19 00:05:43;;;;;;;9.52;4.53;;;15.90;99.90;;;;;;2619852;47;20157;-75
2021/09/19 00:08:12;;;;;;;7.05;4.97;;;15.80;99.90;;;;;;2619869;54;20149;-74
2021/09/19 00:10:44;;;;;;;5.38;4.88;;;15.70;99.90;;;;;;2620687;47;20157;-75
2021/09/19 00:13:14;;;;;;;6.28;4.65;;;15.80;99.90;;;;;;2620367;47;20184;-74
2021/09/19 00:15:43;;;;;;;5.18;4.68;;;15.90;99.90;;;;;;2620431;47;20204;-73
2021/09/19 00:18:12;;;;;;;6.70;5.32;;;15.80;99.90;;;;;;2620911;54;20150;-75
2021/09/19 00:20:41;;;;;;;4.38;4.00;;;15.80;99.90;;;;;;2620567;54;20153;-75
2021/09/19 00:23:10;;;;;;;9.70;6.68;;;15.90;99.90;;;;;;2620251;47;20185;-75
2021/09/19 00:25:39;;;;;;;7.22;4.03;;;15.80;99.90;;;;;;2621271;39;20559;-75
2021/09/19 00:28:11;;;;;;;6.03;4.18;;;15.60;99.90;;;;;;2624756;47;20146;-75
2021/09/19 00:30:40;;;;;;;7.43;4.38;;;15.50;99.90;;;;;;2626058;31;20627;-77
2021/09/19 00:33:09;;;;;;;8.40;4.90;;;15.70;99.90;;;;;;2624585;47;20173;-75
2021/09/19 00:35:38;;;;;;;9.10;5.65;;;15.70;99.90;;;;;;2625186;47;20162;-75
2021/09/19 00:38:08;;;;;;;7.45;4.60;;;15.70;99.90;;;;;;2625399;54;20145;-75
2021/09/19 00:40:37;;;;;;;8.68;5.55;;;15.60;99.90;;;;;;2625335;39;20590;-75
2021/09/19 00:43:06;;;;;;;6.13;5.45;;;15.60;99.90;;;;;;2624844;54;20175;-75
2021/09/19 00:45:37;;;;;;;5.53;5.05;;;15.70;99.90;;;;;;2622541;54;20699;-74
2021/09/19 00:48:07;;;;;;;7.65;4.88;;;15.60;99.90;;;;;;2621620;39;20542;-75
2021/09/19 00:50:36;;;;;;;4.63;4.18;;;15.60;99.90;;;;;;2620569;54;20146;-75
2021/09/19 00:53:06;;;;;;;5.32;4.82;;;15.60;99.90;;;;;;2620504;54;20176;-76
2021/09/19 00:55:34;;;;;;;5.80;4.93;;;15.50;99.90;;;;;;2630723;47;20156;-75
2021/09/19 00:58:09;;;;;;;8.25;5.70;;;15.50;99.90;;;;;;2645617;31;20874;-76
2021/09/19 01:00:47;;;;;;;5.88;5.03;;;15.50;99.90;;;;;;2635228;39;20726;-77
2021/09/19 01:03:16;;;;;;;9.85;6.00;;;15.50;99.90;;;;;;2630936;47;20843;-77
2021/09/19 01:05:45;;;;;;;4.78;4.38;;;15.60;99.90;;;;;;2631080;47;20153;-77
2021/09/19 01:08:17;;;;;;;5.95;5.15;;;15.60;99.90;;;;;;2630673;47;20201;-76
2021/09/19 01:10:46;;;;;;;10.32;5.35;;;15.60;99.90;;;;;;2631047;47;20185;-77
2021/09/19 01:13:16;;;;;;;5.75;4.75;;;15.50;99.90;;;;;;2630486;47;20182;-76
2021/09/19 01:15:49;;;;;;;6.13;4.50;;;15.50;99.90;;;;;;2630971;47;20145;-77
2021/09/19 01:18:19;;;;;;;5.10;4.60;;;15.30;99.90;;;;;;2630710;47;20198;-77
2021/09/19 01:20:49;;;;;;;5.75;4.72;;;15.30;99.90;;;;;;2631008;54;20152;-77
2021/09/19 01:23:18;;;;;;;7.43;5.00;;;15.30;99.90;;;;;;2630756;47;20142;-78
2021/09/19 01:25:52;;;;;;;6.68;4.57;;;15.40;99.90;;;;;;2630907;47;20164;-76
2021/09/19 01:28:21;;;;;;;4.93;4.50;;;15.30;99.90;;;;;;2630956;54;20137;-77
2021/09/19 01:30:50;;;;;;;5.82;4.18;;;15.30;99.90;;;;;;2630902;54;20146;-77
2021/09/19 01:33:19;;;;;;;6.60;4.80;;;15.30;99.90;;;;;;2630510;47;20135;-76
2021/09/19 01:35:47;;;;;;;5.75;3.63;;;15.40;99.90;;;;;;2630921;46;20132;-77
2021/09/19 01:38:16;;;;;;;9.10;4.15;;;15.20;99.90;;;;;;2629846;54;20197;-76
2021/09/19 01:40:45;;;;;;;5.28;4.65;;;15.40;99.90;;;;;;2630525;47;20177;-76
2021/09/19 01:43:17;;;;;;;6.43;5.18;;;15.20;99.90;;;;;;2630599;54;20188;-77
2021/09/19 01:45:45;;;;;;;6.68;5.10;;;15.30;99.90;;;;;;2630897;47;20181;-78
2021/09/19 01:48:14;;;;;;;5.97;5.05;;;15.20;99.90;;;;;;2630843;47;20507;-78
2021/09/19 01:50:43;;;;;;;4.72;4.30;;;15.20;99.90;;;;;;2630917;47;20146;-77
2021/09/19 01:53:12;;;;;;;8.60;5.65;;;15.30;99.90;;;;;;2630554;54;20185;-77
2021/09/19 01:55:41;;;;;;;7.57;4.72;;;15.30;99.90;;;;;;2630865;47;20149;-77
2021/09/19 01:58:10;;;;;;;6.32;4.93;;;15.40;99.90;;;;;;2630622;47;20189;-77
2021/09/19 02:00:42;;;;;;;6.65;5.32;;;15.50;99.90;;;;;;2630827;54;20189;-77
2021/09/19 02:03:11;;;;;;;5.90;5.30;;;15.50;99.90;;;;;;2635788;31;20830;-77
2021/09/19 02:05:40;;;;;;;6.05;4.63;;;15.50;99.90;;;;;;2630813;47;20248;-76
2021/09/19 02:08:10;;;;;;;5.38;4.85;;;15.30;99.90;;;;;;2630403;47;20126;-78
2021/09/19 02:10:39;;;;;;;5.15;4.65;;;15.30;99.90;;;;;;2629423;47;20189;-78
2021/09/19 02:13:08;;;;;;;9.32;5.65;;;15.30;99.90;;;;;;2630619;54;20205;-77
2021/09/19 02:15:37;;;;;;;8.75;5.93;;;15.30;99.90;;;;;;2630600;47;20146;-78
2021/09/19 02:18:08;;;;;;;8.02;5.22;;;15.30;99.90;;;;;;2630727;54;20221;-77
2021/09/19 02:20:37;;;;;;;7.47;5.57;;;15.20;99.90;;;;;;2632781;39;20689;-78
2021/09/19 02:23:06;;;;;;;6.30;5.70;;;15.30;99.90;;;;;;2630735;47;20129;-77
2021/09/19 02:25:35;;;;;;;19.00;6.40;;;15.30;99.90;;;;;;2632440;39;20704;-77
2021/09/19 02:28:04;;;;;;;13.55;6.00;;;15.20;99.90;;;;;;2630768;47;20142;-77
2021/09/19 02:30:32;;;;;;;13.55;6.70;;;15.10;99.90;;;;;;2631276;54;20198;-77
2021/09/19 02:33:01;;;;;;;4.97;4.47;;;15.20;99.90;;;;;;2631386;47;20149;-77
2021/09/19 02:35:33;;;;;;;7.82;5.78;;;15.10;99.90;;;;;;2631322;46;20125;-77
2021/09/19 02:38:02;;;;;;;8.00;5.47;;;15.20;99.90;;;;;;2631601;54;20201;-76
2021/09/19 02:40:31;;;;;;;9.18;6.43;;;14.90;99.90;;;;;;2631202;54;20173;-77
2021/09/19 02:43:00;;;;;;;10.82;6.50;;;14.90;99.90;;;;;;2630919;54;20176;-78
2021/09/19 02:45:29;;;;;;;9.38;7.20;;;14.90;99.90;;;;;;2631050;47;20145;-77
2021/09/19 02:47:58;;;;;;;6.35;5.78;;;14.90;99.90;;;;;;2631502;46;20910;-78
2021/09/19 02:50:27;;;;;;;6.10;5.50;;;14.90;99.90;;;;;;2631472;54;20821;-77
2021/09/19 02:52:59;;;;;;;6.18;5.18;;;14.70;99.90;;;;;;2631407;47;20876;-78
2021/09/19 02:55:27;;;;;;;8.85;6.97;;;14.40;99.90;;;;;;2631229;54;20168;-77
2021/09/19 02:57:56;;;;;;;6.50;5.80;;;14.30;99.90;;;;;;2631512;47;20201;-78
2021/09/19 03:00:25;;;;;;;6.97;6.18;;;14.30;99.90;;;;;;2631250;47;20157;-77
2021/09/19 03:02:55;;;;;;;8.02;6.07;;;14.30;99.90;;;;;;2631374;47;20159;-77
2021/09/19 03:05:24;;;;;;;9.45;5.68;;;14.40;99.90;;;;;;2631144;54;20181;-77
2021/09/19 03:07:56;;;;;;;9.32;5.85;;;14.30;99.90;;;;;;2631409;47;20189;-76
2021/09/19 03:10:27;;;;;;;9.55;5.28;;;14.30;99.90;;;;;;2631384;47;20804;-77
2021/09/19 03:12:56;;;;;;;7.70;5.20;;;14.30;99.90;;;;;;2637863;39;20637;-77
2021/09/19 03:15:25;;;;;;;8.07;4.90;;;14.30;99.90;;;;;;2631110;54;20196;-77
2021/09/19 03:17:54;;;;;;;8.90;5.93;;;14.40;99.90;;;;;;2631272;54;20171;-77
2021/09/19 03:20:23;;;;;;;5.65;5.07;;;14.30;99.90;;;;;;2631302;47;20149;-77
2021/09/19 03:22:52;;;;;;;5.53;4.90;;;14.20;99.90;;;;;;2631370;54;20845;-76
2021/09/19 03:25:20;;;;;;;7.38;5.55;;;14.00;99.90;;;;;;2631163;47;20229;-76
2021/09/19 03:27:52;;;;;;;7.60;5.85;;;14.10;99.90;;;;;;2631188;46;20165;-77
2021/09/19 03:30:21;;;;;;;6.75;5.15;;;14.10;99.90;;;;;;2631281;47;20154;-76
2021/09/19 03:32:50;;;;;;;7.05;5.30;;;14.30;99.90;;;;;;2631321;46;20176;-77
2021/09/19 03:35:18;;;;;;;7.25;4.95;;;14.10;99.90;;;;;;2630653;47;20161;-78
2021/09/19 03:37:47;;;;;;;8.38;5.22;;;14.10;99.90;;;;;;2631334;47;20204;-77
2021/09/19 03:40:16;;;;;;;9.88;5.20;;;14.00;99.90;;;;;;2630925;54;20180;-77
2021/09/19 03:42:45;;;;;;;6.97;5.20;;;14.10;99.90;;;;;;2631260;47;20869;-77
2021/09/19 03:45:17;;;;;;;8.68;5.82;;;14.10;99.90;;;;;;2630875;54;20169;-77
2021/09/19 03:47:47;;;;;;;5.95;5.25;;;14.30;99.90;;;;;;2631331;46;20144;-78
2021/09/19 03:50:16;;;;;;;4.70;4.25;;;14.30;99.90;;;;;;2631209;47;20183;-78
2021/09/19 03:52:45;;;;;;;7.20;5.35;;;14.20;99.90;;;;;;2631293;54;20161;-78
2021/09/19 03:55:14;;;;;;;5.15;4.70;;;14.10;99.90;;;;;;2630926;54;20188;-78
2021/09/19 03:57:43;;;;;;;9.00;5.30;;;14.10;99.90;;;;;;2631264;47;20180;-77
2021/09/19 04:00:12;;;;;;;8.25;5.90;;;14.20;99.90;;;;;;2630718;54;20149;-76
2021/09/19 04:02:44;;;;;;;7.22;5.25;;;14.20;99.90;;;;;;2630851;47;20157;-76
2021/09/19 04:05:14;;;;;;;5.78;5.25;;;14.30;99.90;;;;;;2630762;47;20167;-76
2021/09/19 04:07:43;;;;;;;5.32;4.82;;;14.30;99.90;;;;;;2631153;54;20189;-77
2021/09/19 04:10:13;;;;;;;6.97;4.60;;;14.30;99.90;;;;;;2631152;47;20201;-77
2021/09/19 04:12:43;;;;;;;8.77;5.55;;;14.20;99.90;;;;;;2631074;47;20176;-77
2021/09/19 04:15:14;;;;;;;7.75;4.72;;;14.10;99.90;;;;;;2630914;54;20160;-78
2021/09/19 04:17:46;;;;;;;9.30;5.68;;;14.10;99.90;;;;;;2630935;47;20156;-77
2021/09/19 04:20:15;;;;;;;6.20;5.13;;;14.20;99.90;;;;;;2630703;47;20221;-76
2021/09/19 04:22:45;;;;;;;6.47;5.65;;;14.30;99.90;;;;;;2630992;47;20205;-76
2021/09/19 04:25:14;;;;;;;8.60;5.15;;;14.20;99.90;;;;;;2630661;47;20788;-77
2021/09/19 04:27:43;;;;;;;8.48;5.10;;;14.30;99.90;;;;;;2634075;46;20745;-77
2021/09/19 04:30:14;;;;;;;5.82;5.15;;;14.10;99.90;;;;;;2630973;54;20182;-77
2021/09/19 04:32:46;;;;;;;8.32;5.50;;;14.10;99.90;;;;;;2631155;47;20172;-77
2021/09/19 04:35:15;;;;;;;6.32;5.75;;;14.10;99.90;;;;;;2630795;47;20176;-77
2021/09/19 04:37:44;;;;;;;5.95;5.20;;;14.20;99.90;;;;;;2631120;54;20141;-77
2021/09/19 04:40:14;;;;;;;5.97;5.22;;;14.20;99.90;;;;;;2630810;47;20157;-77
2021/09/19 04:42:43;;;;;;;7.55;5.20;;;14.10;99.90;;;;;;2631169;47;20137;-78
2021/09/19 04:45:13;;;;;;;7.00;5.50;;;13.90;99.90;;;;;;2630706;47;20169;-76
2021/09/19 04:47:42;;;;;;;12.95;5.80;;;14.10;99.90;;;;;;2631130;47;20193;-76
2021/09/19 04:50:13;;;;;;;7.25;6.15;;;14.20;99.90;;;;;;2631062;47;20153;-77
2021/09/19 04:52:42;;;;;;;9.93;5.57;;;14.20;99.90;;;;;;2630761;54;20197;-78
2021/09/19 04:55:12;;;;;;;6.47;5.88;;;14.30;99.90;;;;;;2630727;47;20157;-77
2021/09/19 04:57:41;;;;;;;6.15;5.53;;;14.10;99.90;;;;;;2630933;47;20181;-77
2021/09/19 05:00:11;;;;;;;8.40;5.28;;;14.10;99.90;;;;;;2631870;46;20160;-76
2021/09/19 05:02:39;;;;;;;5.93;5.15;;;14.10;99.90;;;;;;2630607;47;20210;-76
2021/09/19 05:05:10;;;;;;;8.93;5.25;;;14.20;99.90;;;;;;2629942;47;20230;-77
2021/09/19 05:07:41;;;;;;;7.95;5.35;;;14.20;99.90;;;;;;2635471;39;20818;-78
2021/09/19 05:10:11;;;;;;;9.13;5.75;;;14.20;99.90;;;;;;2630746;47;20138;-77
2021/09/19 05:12:40;;;;;;;5.78;4.72;;;14.30;99.90;;;;;;2631004;46;20153;-77
2021/09/19 05:15:11;;;;;;;6.28;5.00;;;14.00;99.90;;;;;;2630746;46;20235;-77
2021/09/19 05:17:39;;;;;;;10.00;5.85;;;14.00;99.90;;;;;;2630277;54;20209;-77
2021/09/19 05:20:10;;;;;;;8.88;6.70;;;14.30;99.90;;;;;;2630762;54;20209;-77
2021/09/19 05:22:41;;;;;;;8.20;5.22;;;14.30;99.90;;;;;;2630852;47;20149;-77
2021/09/19 05:25:11;;;;;;;6.55;5.95;;;14.50;99.90;;;;;;2630684;47;20253;-77
2021/09/19 05:27:40;;;;;;;5.65;4.95;;;14.40;99.90;;;;;;2630550;47;20135;-77
2021/09/19 05:30:09;;;;;;;6.45;5.68;;;14.30;99.90;;;;;;2629649;47;20153;-77
2021/09/19 05:32:38;;;;;;;7.55;5.07;;;14.20;99.90;;;;;;2630566;47;20176;-77
2021/09/19 05:35:08;;;;;;;7.30;5.95;;;14.10;99.90;;;;;;2630159;46;20190;-77
2021/09/19 05:37:37;;;;;;;7.13;6.35;;;14.30;99.90;;;;;;2630891;47;20200;-77
2021/09/19 05:40:11;;;;;;;6.40;5.32;;;14.30;99.90;;;;;;2630917;47;20172;-78
2021/09/19 05:42:40;;;;;;;9.98;6.07;;;14.40;99.90;;;;;;2630942;54;20161;-77
2021/09/19 05:45:10;;;;;;;6.43;5.32;;;14.40;99.90;;;;;;2630994;46;20175;-77
2021/09/19 05:47:39;;;;;;;6.78;6.07;;;14.40;99.90;;;;;;2630415;46;20185;-76
2021/09/19 05:50:09;;;;;;;7.03;5.70;;;14.40;99.90;;;;;;2630592;47;20200;-76
2021/09/19 05:52:38;;;;;;;6.97;5.53;;;14.30;99.90;;;;;;2630834;47;20168;-77
2021/09/19 05:55:10;;;;;;;6.57;5.68;;;14.20;99.90;;;;;;2630420;54;20237;-76
2021/09/19 05:57:39;;;;;;;6.32;5.25;;;14.20;99.90;;;;;;2630826;54;20140;-77
2021/09/19 06:00:11;;;;;;;8.38;5.45;;;14.20;99.90;;;;;;2629357;54;20274;-77
2021/09/19 06:02:40;;;;;;;5.68;5.13;;;14.40;99.90;;;;;;2632070;39;20838;-77
2021/09/19 06:05:10;;;;;;;5.72;4.97;;;14.20;99.90;;;;;;2630539;47;20188;-76
2021/09/19 06:07:39;;;;;;;5.07;4.57;;;14.40;99.90;;;;;;2629827;47;20176;-77
2021/09/19 06:10:12;;;;;;;6.88;4.82;;;14.30;99.90;;;;;;2629910;47;20156;-77
2021/09/19 06:12:41;;;;;;;9.30;4.93;;;14.40;99.90;;;;;;2633046;39;20795;-77
2021/09/19 06:15:11;;;;;;;6.20;4.80;;;14.50;99.90;;;;;;2630408;54;20192;-78
2021/09/19 06:17:40;;;;;;;6.60;5.35;;;14.60;99.90;;;;;;2630601;47;20145;-77
2021/09/19 06:20:10;;;;;;;6.03;5.40;;;14.50;99.90;;;;;;2630390;47;20152;-77
2021/09/19 06:22:39;;;;;;;7.07;5.28;;;14.50;99.90;;;;;;2630342;54;20140;-77
2021/09/19 06:25:11;;;;;;;5.70;5.13;;;14.40;99.90;;;;;;2629749;47;20180;-77
2021/09/19 06:27:40;;;;;;;6.28;5.13;;;14.40;99.90;;;;;;2630527;47;20145;-76
2021/09/19 06:30:12;;;;;;;6.97;5.70;;;14.30;99.90;;;;;;2630486;54;20704;-77
2021/09/19 06:32:41;;;;;;;8.73;6.03;;;14.50;99.90;;;;;;2630448;47;20174;-76
2021/09/19 06:35:11;;;;;;;7.30;6.05;;;14.60;99.90;;;;;;2630172;47;20225;-78
2021/09/19 06:37:40;;;;;;;7.53;5.32;;;14.60;99.90;;;;;;2630798;47;20208;-78
2021/09/19 06:40:13;;;;;;;6.03;5.40;;;14.60;99.90;;;;;;2630663;47;20214;-78
2021/09/19 06:42:42;;;;;;;7.03;5.90;;;14.70;99.90;;;;;;2633753;39;20214;-78
2021/09/19 06:45:13;;;;;;;7.57;5.63;;;14.70;99.90;;;;;;2630348;47;20232;-78
2021/09/19 06:47:43;;;;;;;5.88;5.28;;;14.80;99.90;;;;;;2630746;47;20133;-79
2021/09/19 06:50:14;;;;;;;6.05;5.53;;;14.70;99.90;;;;;;2630567;54;20168;-79
2021/09/19 06:52:43;;;;;;;6.18;5.57;;;14.70;99.90;;;;;;2630633;54;20185;-78
2021/09/19 06:55:15;;;;;;;5.55;5.03;;;14.70;99.90;;;;;;2629339;47;20224;-77
2021/09/19 06:57:44;;;;;;;6.32;5.63;;;14.90;99.90;;;;;;2630442;47;20128;-81
2021/09/19 07:00:14;;;;;;;6.47;5.45;;;14.80;99.90;;;;;;2630803;47;20145;-81
2021/09/19 07:02:43;;;;;;;8.05;5.53;;;14.90;99.90;;;;;;2630769;54;20148;-80
2021/09/19 07:05:12;;;;;;;6.22;4.70;;;15.10;99.90;;;;;;2630662;47;20146;-86
2021/09/19 07:07:41;;;;;;;5.43;4.82;;;15.00;99.90;;;;;;2630902;47;20204;-81
2021/09/19 07:10:11;;;;;;;7.18;5.18;;;15.10;99.90;;;;;;2630806;54;20141;-78
2021/09/19 07:12:43;;;;;;;5.65;5.15;;;15.10;99.90;;;;;;2630661;54;20210;-80
2021/09/19 07:15:12;;;;;;;5.22;4.72;;;15.10;99.90;;;;;;2630697;47;20241;-80
2021/09/19 07:17:41;;;;;;;5.25;4.75;;;15.20;99.90;;;;;;2631518;54;20156;-79
2021/09/19 07:20:11;;;;;;;6.90;4.97;;;15.20;99.90;;;;;;2631927;46;20126;-80
2021/09/19 07:22:40;;;;;;;5.28;4.78;;;15.30;99.90;;;;;;2631390;46;20149;-82
2021/09/19 07:25:10;;;;;;;6.03;5.05;;;15.40;99.90;;;;;;2631406;46;20357;-79
2021/09/19 07:27:42;;;;;;;8.23;4.68;;;15.40;99.90;;;;;;2631781;46;20160;-79
2021/09/19 07:30:13;;;;;;;5.25;4.63;;;15.50;99.90;;;;;;2636932;31;20816;-76
2021/09/19 07:32:43;;;;;;;5.05;4.63;;;15.60;99.90;;;;;;2631342;46;20130;-79
2021/09/19 07:35:12;;;;;;;6.95;5.20;;;15.50;99.90;;;;;;2631327;46;20164;-79
2021/09/19 07:37:41;;;;;;;4.88;4.35;;;15.70;99.90;;;;;;2631295;47;20152;-79
2021/09/19 07:40:11;;;;;;;5.95;5.00;;;15.70;99.90;;;;;;2631370;47;20186;-79
2021/09/19 07:42:43;;;;;;;9.38;5.57;;;15.80;99.90;;;;;;2631547;46;20129;-80
2021/09/19 07:45:14;;;;;;;4.80;4.15;;;15.90;99.90;;;;;;2631300;54;20296;-76
2021/09/19 07:47:44;;;;;;;6.18;5.25;;;15.70;99.90;;;;;;2631534;46;21002;-78
2021/09/19 07:50:14;;;;;;;5.65;5.10;;;15.70;99.90;;;;;;2631584;46;20130;-79
2021/09/19 07:52:44;;;;;;;6.30;4.88;;;15.80;99.90;;;;;;2631389;46;20141;-79
2021/09/19 07:55:15;;;;;;;8.38;4.78;;;15.70;99.90;;;;;;2631340;46;20157;-80
2021/09/19 07:57:48;;;;;;;5.35;4.80;;;15.80;99.90;;;;;;2631316;46;20149;-80
2021/09/19 08:00:17;;;;;;;5.28;4.82;;;15.90;99.90;;;;;;2631409;54;20180;-81
2021/09/19 08:02:46;;;;;;;6.80;4.88;;;15.90;99.90;;;;;;2631349;54;20153;-79
2021/09/19 08:05:15;;;;;;;5.97;5.22;;;16.00;99.90;;;;;;2631369;46;20164;-80
2021/09/19 08:07:45;;;;;;;6.78;5.47;;;16.10;99.90;;;;;;2631219;46;20173;-78
2021/09/19 08:10:14;;;;;;;7.32;4.78;;;16.20;99.90;;;;;;2631136;47;20141;-79
2021/09/19 08:12:46;;;;;;;7.93;5.43;;;16.30;99.90;;;;;;2631623;46;20168;-81
2021/09/19 08:15:19;;;;;;;4.95;4.38;;;16.30;99.90;;;;;;2631121;46;20145;-80
2021/09/19 08:17:49;;;;;;;6.40;5.15;;;16.30;99.90;;;;;;2631594;46;20152;-80
2021/09/19 08:20:20;;;;;;;4.70;4.28;;;16.30;99.90;;;;;;2631499;46;20746;-80
2021/09/19 08:22:49;;;;;;;7.47;4.45;;;16.40;99.90;;;;;;2631297;54;20140;-79
2021/09/19 08:25:18;;;;;;;5.05;4.53;;;16.30;99.90;;;;;;2631187;46;20187;-80
2021/09/19 08:27:48;;;;;;;5.32;4.20;;;16.40;99.90;;;;;;2630809;54;20145;-81
2021/09/19 08:30:20;;;;;;;5.45;4.63;;;16.50;99.90;;;;;;2631202;54;20137;-80
2021/09/19 08:32:48;;;;;;;6.35;3.70;;;16.50;99.90;;;;;;2631506;46;20343;-81
2021/09/19 08:35:17;;;;;;;5.38;4.53;;;16.30;99.90;;;;;;2633128;39;20749;-79
2021/09/19 08:37:46;;;;;;;5.18;4.45;;;16.20;99.90;;;;;;2631594;46;20145;-82
2021/09/19 08:40:16;;;;;;;5.35;4.55;;;16.30;99.90;;;;;;2631274;46;20201;-79
2021/09/19 08:42:52;;;;;;;7.32;4.97;;;16.20;99.90;;;;;;2631787;46;20253;-82
2021/09/19 08:45:24;;;;;;;5.38;3.92;;;16.50;99.90;;;;;;2631099;54;20199;-80
2021/09/19 08:47:54;;;;;;;6.47;5.10;;;16.50;99.90;;;;;;2631327;47;20133;-80
2021/09/19 08:50:23;;;;;;;6.90;4.95;;;16.50;99.90;;;;;;2631273;54;20168;-81
2021/09/19 08:52:52;;;;;;;4.93;4.53;;;16.50;99.90;;;;;;2631437;46;20130;-82
2021/09/19 08:55:21;;;;;;;9.30;4.75;;;16.50;99.90;;;;;;2631028;47;20180;-81
2021/09/19 08:57:51;;;;;;;6.00;4.82;;;16.50;99.90;;;;;;2631319;47;20875;-82
2021/09/19 09:00:22;;;;;;;7.00;4.88;;;16.40;99.90;;;;;;2631761;46;20145;-80
2021/09/19 09:02:53;;;;;;;5.50;4.77;;;16.40;99.90;;;;;;2627668;46;20129;31
2021/09/19 09:05:25;;;;;;;5.50;5.00;;;16.50;99.90;;;;;;2630659;54;20169;-80
2021/09/19 09:07:57;;;;;;;4.88;4.32;;;16.50;99.90;;;;;;2631029;46;20126;-76
2021/09/19 09:10:47;;;;;;;7.43;4.72;;;16.40;99.90;;;;;;2630195;47;20817;-86
2021/09/19 09:13:18;;;;;;;4.78;3.67;;;16.40;99.90;;;;;;2630117;47;20192;-77
2021/09/19 09:15:51;;;;;;;4.68;4.20;;;16.40;99.90;;;;;;2629560;46;20179;-76
2021/09/19 09:18:33;;;;;;;4.47;3.83;;;16.40;99.90;;;;;;2619203;46;20316;-74
2021/09/19 09:21:04;;;;;;;5.13;4.57;;;16.40;99.90;;;;;;2619857;47;20149;-73
2021/09/19 09:23:36;;;;;;;5.45;4.80;;;16.30;99.90;;;;;;2619942;54;20153;-75
2021/09/19 09:26:26;;;;;;;6.97;5.63;;;16.40;99.90;;;;;;2619354;47;20146;-74
2021/09/19 09:28:58;;;;;;;5.35;4.38;;;16.50;99.90;;;;;;2618856;54;20169;-73
2021/09/19 09:31:32;;;;;;;4.57;4.05;;;16.50;99.90;;;;;;2619633;54;20700;-75
2021/09/19 09:34:07;;;;;;;4.50;3.55;;;16.60;99.90;;;;;;2620398;54;20149;-75
2021/09/19 09:36:40;;;;;;;5.32;3.95;;;16.60;99.90;;;;;;2620372;54;20157;-74
2021/09/19 09:39:27;;;;;;;4.30;3.88;;;16.50;99.90;;;;;;2619462;47;20165;-75
2021/09/19 09:41:57;;;;;;;9.85;4.65;;;16.60;99.90;;;;;;2619611;54;20149;-74
2021/09/19 09:44:28;;;;;;;5.25;3.97;;;16.60;99.90;;;;;;2620087;39;20595;-74
2021/09/19 09:47:00;;;;;;;4.72;3.80;;;16.80;99.90;;;;;;2620023;54;20173;-73
2021/09/19 09:49:48;;;;;;;3.30;3.08;;;16.90;99.90;;;;;;2619963;54;20170;-73
2021/09/19 09:52:21;;;;;;;5.45;3.20;;;16.90;99.90;;;;;;2620118;47;20163;-74
2021/09/19 09:54:53;;;;;;;7.15;4.07;;;16.90;99.90;;;;;;2621772;54;20149;-74
2021/09/19 09:57:34;;;;;;;4.78;3.72;;;16.90;99.90;;;;;;2623196;54;20196;-74
2021/09/19 10:00:04;;;;;;;6.28;4.45;;;16.90;99.90;;;;;;2623613;54;20149;-74
2021/09/19 10:02:37;;;;;;;7.68;4.10;;;16.80;99.90;;;;;;2619564;54;20559;-74
2021/09/19 10:05:08;;;;;;;4.93;3.60;;;17.00;99.90;;;;;;2619561;54;20141;-74
2021/09/19 10:07:37;;;;;;;4.00;3.63;;;17.10;99.90;;;;;;2619231;54;20141;-73
2021/09/19 10:10:08;;;;;;;3.75;2.97;;;17.10;99.90;;;;;;2618676;47;20153;-73
2021/09/19 10:12:38;;;;;;;3.63;3.03;;;17.10;99.90;;;;;;2619117;54;20141;-73
2021/09/19 10:15:09;;;;;;;3.88;3.35;;;17.10;99.90;;;;;;2619062;54;20153;-72
2021/09/19 10:17:41;;;;;;;5.60;3.50;;;17.20;99.90;;;;;;2621687;54;20161;-74
2021/09/19 10:20:15;;;;;;;3.70;3.22;;;17.00;99.90;;;;;;2622683;54;20145;-74
2021/09/19 10:22:50;;;;;;;3.60;2.40;;;16.90;99.90;;;;;;2625165;54;20157;-73
2021/09/19 10:25:37;;;;;;;3.45;2.30;;;16.70;99.90;;;;;;2626569;47;20152;-74
2021/09/19 10:28:29;;;;;;;2.92;2.67;;;16.90;99.90;;;;;;2627100;54;20163;-74
2021/09/19 10:31:32;;;;;;;2.70;2.50;;;17.10;99.90;;;;;;2627120;54;20161;-74
2021/09/19 10:34:06;;;;;;;4.75;2.92;;;17.20;99.90;;;;;;2626269;54;20164;-74
2021/09/19 10:36:49;;;;;;;3.05;2.83;;;17.20;99.90;;;;;;2626793;54;20763;-75
2021/09/19 10:39:21;;;;;;;3.90;3.55;;;17.20;99.90;;;;;;2626383;47;20217;-73
2021/09/19 10:42:28;;;;;;;4.45;2.50;;;17.10;99.90;;;;;;2625770;54;20675;-74
2021/09/19 10:45:16;;;;;;;2.65;2.42;;;17.10;99.90;;;;;;2625055;47;20145;-75
2021/09/19 10:47:48;;;;;;;2.75;2.55;;;17.10;99.90;;;;;;2626479;47;20173;-74
2021/09/19 10:50:36;;;;;;;2.75;2.53;;;17.00;99.90;;;;;;2626336;39;20625;-74
2021/09/19 10:53:07;;;;;;;2.90;2.15;;;17.00;99.90;;;;;;2626647;54;20142;-74
2021/09/19 10:55:48;;;;;;;4.85;2.28;;;17.10;99.90;;;;;;2626845;46;20181;-75
2021/09/19 10:58:22;;;;;;;2.30;2.10;;;17.10;99.90;;;;;;2626164;47;20286;-74
2021/09/19 11:01:10;;;;;;;3.15;2.95;;;17.00;99.90;;;;;;2626691;54;20213;-74
2021/09/19 11:03:40;;;;;;;3.50;2.97;;;16.90;99.90;;;;;;2624738;54;20157;-74
2021/09/19 11:06:23;;;;;;;4.82;3.80;;;16.80;99.90;;;;;;2623172;46;20168;-74
2021/09/19 11:08:52;;;;;;;4.97;3.15;;;16.70;99.90;;;;;;2619534;47;20169;-75
2021/09/19 11:11:24;;;;;;;3.38;3.00;;;16.60;99.90;;;;;;2620169;47;20153;-75
2021/09/19 11:14:03;;;;;;;3.53;3.13;;;16.50;99.90;;;;;;2620513;46;20148;-74
2021/09/19 11:16:37;;;;;;;3.42;3.13;;;16.40;99.90;;;;;;2620144;47;20157;-74
2021/09/19 11:19:08;;;;;;;3.03;2.72;;;16.30;99.90;;;;;;2620197;47;20203;-74
2021/09/19 11:21:43;;;;;;;3.17;2.92;;;16.50;99.90;;;;;;2621337;47;20248;-74
2021/09/19 11:24:14;;;;;;;3.58;3.00;;;16.40;99.90;;;;;;2621968;39;20579;-74
2021/09/19 11:26:45;;;;;;;3.25;2.95;;;16.50;99.90;;;;;;2620796;47;20180;-74
2021/09/19 11:29:16;;;;;;;4.07;3.60;;;16.50;99.90;;;;;;2619515;54;20663;-74
2021/09/19 11:31:47;;;;;;;3.05;2.38;;;16.70;99.90;;;;;;2619150;54;20157;-74
2021/09/19 11:34:18;;;;;;;5.40;3.63;;;16.70;99.90;;;;;;2619653;47;20168;-75
2021/09/19 11:36:52;;;;;;;2.72;2.45;;;16.80;99.90;;;;;;2620620;54;20232;-75
2021/09/19 11:39:21;;;;;;;3.22;2.88;;;16.80;99.90;;;;;;2620493;51;20157;-75
2021/09/19 11:41:52;;;;;;;3.30;3.00;;;16.80;99.90;;;;;;2619784;54;20141;-74
2021/09/19 11:44:21;;;;;;;3.45;3.10;;;17.00;99.90;;;;;;2619139;47;20149;-74
2021/09/19 11:46:52;;;;;;;5.70;3.20;;;17.10;99.90;;;;;;2620834;39;20606;-74
2021/09/19 11:49:22;;;;;;;3.80;2.28;;;17.20;99.90;;;;;;2619915;47;20156;-74
2021/09/19 11:51:53;;;;;;;3.13;2.92;;;17.10;99.90;;;;;;2619963;47;20153;-75
2021/09/19 11:54:22;;;;;;;2.78;2.58;;;17.00;99.90;;;;;;2620189;47;20157;-75
2021/09/19 11:56:51;;;;;;;4.55;2.97;;;16.80;99.90;;;;;;2620558;47;20168;-74
2021/09/19 11:59:21;;;;;;;4.30;3.00;;;16.70;99.90;;;;;;2621527;39;20584;-75
2021/09/19 12:01:50;;;;;;;3.72;3.25;;;16.90;99.90;;;;;;2621133;54;20155;-75
2021/09/19 12:04:19;;;;;;;4.68;4.28;;;17.00;99.90;;;;;;2620465;54;20160;-75
2021/09/19 12:06:47;;;;;;;3.35;3.03;;;16.80;99.90;;;;;;2619748;47;20169;-75
2021/09/19 12:09:23;;;;;;;3.10;2.72;;;16.80;99.90;;;;;;2621193;54;20161;-74
2021/09/19 15:19:17;;;;;;;5.43;3.05;;;16.50;99.90;;;;;;2617863;46;20213;-74
2021/09/19 15:21:46;;;;;;;3.63;3.13;;;16.40;99.90;;;;;;2619532;46;20269;-74
2021/09/19 15:24:15;;;;;;;3.65;3.15;;;16.50;99.90;;;;;;2619018;54;20153;-73
2021/09/19 15:26:43;;;;;;;3.65;3.35;;;16.50;99.90;;;;;;2619851;54;20145;-74
2021/09/19 15:29:13;;;;;;;3.10;2.80;;;16.80;99.90;;;;;;2619705;47;20153;-73
2021/09/19 15:31:41;;;;;;;3.40;3.10;;;16.80;99.90;;;;;;2618923;47;20153;-74
2021/09/19 15:34:10;;;;;;;4.93;3.85;;;16.80;99.90;;;;;;2618864;47;20209;-73
2021/09/19 15:36:42;;;;;;;4.95;3.55;;;16.60;99.90;;;;;;2618997;54;20133;-74
2021/09/19 15:39:11;;;;;;;9.85;3.60;;;16.60;99.90;;;;;;2620252;54;20717;-73
2021/09/19 15:41:40;;;;;;;4.03;2.83;;;16.70;99.90;;;;;;2619819;54;20202;-75
2021/09/19 15:44:09;;;;;;;5.18;3.53;;;16.80;99.90;;;;;;2618659;47;20153;-74
2021/09/19 15:46:39;;;;;;;3.75;2.85;;;16.80;99.90;;;;;;2618662;54;20153;-74
2021/09/19 15:49:08;;;;;;;3.40;3.10;;;16.90;99.90;;;;;;2619079;46;20177;-74
2021/09/19 15:51:36;;;;;;;4.05;3.65;;;16.80;99.90;;;;;;2619042;54;20153;-74
2021/09/19 15:54:08;;;;;;;3.95;3.42;;;16.70;99.90;;;;;;2618747;54;20141;-73
2021/09/19 15:56:38;;;;;;;4.50;2.90;;;16.60;99.90;;;;;;2618748;47;20164;-74
2021/09/19 15:59:07;;;;;;;6.03;3.13;;;16.50;99.90;;;;;;2619440;54;20774;-74
2021/09/19 16:01:35;;;;;;;4.03;3.55;;;16.50;99.90;;;;;;2619634;54;20161;-75
2021/09/19 16:04:04;;;;;;;4.38;2.63;;;16.40;99.90;;;;;;2619204;54;20664;-74
2021/09/19 16:06:34;;;;;;;4.43;3.25;;;16.30;99.90;;;;;;2619687;47;20234;-74
2021/09/19 16:09:03;;;;;;;3.63;3.28;;;16.40;99.90;;;;;;2618204;47;20718;-73
2021/09/19 16:11:34;;;;;;;5.50;3.78;;;16.30;99.90;;;;;;2618514;46;20161;-71